Deadhorse Airport Deadhorse US
ICAO: PASC
IATA:
Category: Medium
Scheduled Services:

Elevation: 65 ft
TransAlt. 18000 ft.

Airport Communications:
ATIS:118.4
ANCHORAGE CNTR:134.4
CTAF:123.6
RDO:122.2
UNICOM:123

PASC Zoom In..

If you have problems with the map follow the link
https://www.worldairports.se/pages/airport.php?
ICAO=PASC

Runways:

(A) RW 05 length 6500 ft width 150 ft
ILS 109.30 / hdg 52

(B) RW 06 length 6500 ft width 100 ft
---- / hdg 52

(C) RW 23 length 6500 ft width 150 ft
---- / hdg 232

(D) RW 24 length 6500 ft width 100 ft
---- / hdg 232

Location; PASC
Day. 14 / Time. 12.01 Zulu
* Altimeter: 30.45
* Temperature: -23° c. 9.4°f.
* Wind from: 230° Speed 07 kn.
Dewpoint: -26° c.
Visibility: 2 Statute Miles.
Clouds: Broken 200 ft.
Conditions: Mist.

PASC 141201Z 23007KT 2SM BR BKN002 M23/M26 A3045 RMK AO2 T12331261


Wind From 230°
Speed 07 kn.

 
 
jpsmedia.com for Web Design worldairports.se 2018   terms of use